createdAt,value
2023-01-30T00:08:29.074Z,5.61
2023-01-30T00:18:50.760Z,5.74
2023-01-30T00:29:12.152Z,5.82
2023-01-30T00:39:33.494Z,5.84
2023-01-30T00:49:54.896Z,6.03
2023-01-30T01:00:17.935Z,6.05
2023-01-30T01:10:39.368Z,6.04
2023-01-30T01:21:00.748Z,6.15
2023-01-30T01:31:24.120Z,6.27
2023-01-30T01:41:45.654Z,6.28
2023-01-30T01:52:12.836Z,6.38
2023-01-30T02:02:34.614Z,6.26
2023-01-30T02:12:56.136Z,6.33
2023-01-30T02:23:29.774Z,6.45
2023-01-30T02:34:09.349Z,6.48
2023-01-30T02:44:34.541Z,6.59
2023-01-30T02:54:56.020Z,6.67
2023-01-30T03:05:28.063Z,6.73
2023-01-30T03:15:49.424Z,6.82
2023-01-30T03:26:14.259Z,6.98
2023-01-30T03:36:35.732Z,7.04
2023-01-30T03:46:57.331Z,7.12
2023-01-30T03:57:19.384Z,7.40
2023-01-30T04:07:40.735Z,7.48
2023-01-30T04:18:02.098Z,7.53
2023-01-30T04:28:23.499Z,7.46
2023-01-30T04:38:44.925Z,7.42
2023-01-30T04:49:06.279Z,7.36
2023-01-30T04:59:27.646Z,7.32
2023-01-30T05:09:48.999Z,7.20
2023-01-30T05:20:10.692Z,7.08
2023-01-30T05:30:32.129Z,6.98
2023-01-30T05:41:00.631Z,6.97
2023-01-30T05:51:23.276Z,6.93
2023-01-30T06:01:44.685Z,6.92
2023-01-30T06:12:06.749Z,6.85
2023-01-30T06:22:28.092Z,6.75
2023-01-30T06:32:52.602Z,6.63
2023-01-30T06:43:14.286Z,6.60
2023-01-30T06:53:35.748Z,6.60
2023-01-30T07:03:57.127Z,6.63
2023-01-30T07:14:18.487Z,6.60
2023-01-30T07:24:40.034Z,6.75
2023-01-30T07:35:02.062Z,6.80
2023-01-30T07:45:24.340Z,6.93
2023-01-30T07:55:45.750Z,6.97
2023-01-30T08:06:07.560Z,6.95
2023-01-30T08:16:29.042Z,6.98
2023-01-30T08:26:50.771Z,7.00
2023-01-30T08:37:12.137Z,7.07
2023-01-30T08:47:35.470Z,7.18
2023-01-30T08:57:57.071Z,7.18
2023-01-30T09:08:18.440Z,7.22
2023-01-30T09:18:41.507Z,7.13
2023-01-30T09:29:02.885Z,7.04
2023-01-30T09:39:24.325Z,7.19
2023-01-30T09:50:06.299Z,7.00
2023-01-30T10:00:27.680Z,7.13
2023-01-30T10:10:55.108Z,6.99
2023-01-30T10:21:25.319Z,6.87
2023-01-30T10:31:48.876Z,6.99
2023-01-30T10:42:14.818Z,6.70
2023-01-30T10:52:48.440Z,6.75
2023-01-30T11:03:15.467Z,6.90
2023-01-30T11:13:37.523Z,6.89
2023-01-30T11:24:04.086Z,7.12
2023-01-30T11:34:25.730Z,7.27
2023-01-30T11:44:47.117Z,7.46
2023-01-30T11:55:11.516Z,7.89
2023-01-30T12:05:36.803Z,7.92
2023-01-30T12:16:04.299Z,8.02
2023-01-30T12:26:47.093Z,7.65
2023-01-30T12:37:18.191Z,6.98
2023-01-30T12:47:45.690Z,6.76
2023-01-30T12:58:07.035Z,6.91
2023-01-30T13:08:28.545Z,7.07
2023-01-30T13:18:54.123Z,7.27
2023-01-30T13:29:20.527Z,7.46
2023-01-30T13:39:48.683Z,7.66
2023-01-30T13:50:20.050Z,7.77
2023-01-30T14:00:51.725Z,7.86
2023-01-30T14:11:33.037Z,7.83
2023-01-30T14:21:56.624Z,7.88
2023-01-30T14:32:21.166Z,8.00
2023-01-30T14:42:44.207Z,7.94
2023-01-30T14:53:13.184Z,8.01
2023-01-30T15:03:39.447Z,8.02
2023-01-30T15:14:04.418Z,8.11
2023-01-30T15:24:34.875Z,8.01
2023-01-30T15:35:00.576Z,7.96
2023-01-30T15:45:34.351Z,7.86
2023-01-30T15:55:55.877Z,7.78
2023-01-30T16:06:33.746Z,7.61
2023-01-30T16:17:01.852Z,7.53
2023-01-30T16:27:26.338Z,7.37
2023-01-30T16:37:47.868Z,7.11
2023-01-30T16:48:19.318Z,6.94
2023-01-30T16:58:44.661Z,6.87
2023-01-30T17:09:25.950Z,6.85
2023-01-30T17:19:48.617Z,6.88
2023-01-30T17:30:17.462Z,6.87
2023-01-30T17:40:39.006Z,6.87
2023-01-30T17:51:00.372Z,6.79
2023-01-30T18:01:21.764Z,6.73
2023-01-30T18:11:43.421Z,6.74
2023-01-30T18:22:04.781Z,6.75
2023-01-30T18:32:26.167Z,6.78
2023-01-30T18:42:47.708Z,6.79
2023-01-30T18:53:09.135Z,6.68
2023-01-30T19:03:30.709Z,6.72
2023-01-30T19:13:53.449Z,6.76
2023-01-30T19:24:16.003Z,6.73
2023-01-30T19:34:38.431Z,6.62
2023-01-30T19:45:00.066Z,6.54
2023-01-30T19:55:21.552Z,6.52
2023-01-30T20:05:43.468Z,6.49
2023-01-30T20:16:09.592Z,6.44
2023-01-30T20:26:35.008Z,6.46
2023-01-30T20:36:56.641Z,6.52
2023-01-30T20:47:18.066Z,6.48
2023-01-30T20:57:41.899Z,6.49
2023-01-30T21:08:03.397Z,6.55
2023-01-30T21:18:24.741Z,6.50
2023-01-30T21:28:46.209Z,6.37
2023-01-30T21:39:26.506Z,6.13
2023-01-30T21:49:47.845Z,6.11
2023-01-30T22:00:09.599Z,6.19
2023-01-30T22:10:30.962Z,6.29
2023-01-30T22:20:52.781Z,6.26
2023-01-30T22:31:15.476Z,6.10
2023-01-30T22:41:37.145Z,6.00
2023-01-30T22:51:58.573Z,5.86
2023-01-30T23:02:19.986Z,5.84
2023-01-30T23:13:00.136Z,5.78
2023-01-30T23:23:21.488Z,5.72
2023-01-30T23:33:42.896Z,5.60
2023-01-30T23:44:04.444Z,5.49
2023-01-30T23:54:25.828Z,5.45
